sensor_id;sensor_type;location;lat;lon;timestamp;P1;durP1;ratioP1;P2;durP2;ratioP2
64915;SDS011;51427;-27.442;153.014;2024-02-26T00:00:43;4.40;;;1.48;;
64915;SDS011;51427;-27.442;153.014;2024-02-26T00:03:12;4.65;;;1.25;;
64915;SDS011;51427;-27.442;153.014;2024-02-26T00:05:39;4.53;;;1.17;;
64915;SDS011;51427;-27.442;153.014;2024-02-26T00:08:06;3.53;;;1.15;;
64915;SDS011;51427;-27.442;153.014;2024-02-26T00:10:34;4.63;;;1.23;;
64915;SDS011;51427;-27.442;153.014;2024-02-26T00:13:01;4.47;;;1.48;;
64915;SDS011;51427;-27.442;153.014;2024-02-26T00:15:29;3.70;;;1.30;;
64915;SDS011;51427;-27.442;153.014;2024-02-26T00:17:56;4.35;;;1.42;;
64915;SDS011;51427;-27.442;153.014;2024-02-26T00:20:23;4.90;;;1.48;;
64915;SDS011;51427;-27.442;153.014;2024-02-26T00:22:51;4.50;;;1.33;;
64915;SDS011;51427;-27.442;153.014;2024-02-26T00:25:18;5.25;;;1.50;;
64915;SDS011;51427;-27.442;153.014;2024-02-26T00:27:45;2.83;;;1.15;;
64915;SDS011;51427;-27.442;153.014;2024-02-26T00:30:12;4.50;;;1.33;;
64915;SDS011;51427;-27.442;153.014;2024-02-26T00:32:40;4.80;;;1.60;;
64915;SDS011;51427;-27.442;153.014;2024-02-26T00:35:07;3.38;;;1.42;;
64915;SDS011;51427;-27.442;153.014;2024-02-26T00:37:35;2.38;;;1.30;;
64915;SDS011;51427;-27.442;153.014;2024-02-26T00:40:02;7.63;;;1.85;;
64915;SDS011;51427;-27.442;153.014;2024-02-26T00:42:30;2.33;;;1.38;;
64915;SDS011;51427;-27.442;153.014;2024-02-26T00:44:57;5.25;;;1.30;;
64915;SDS011;51427;-27.442;153.014;2024-02-26T00:47:24;4.25;;;1.17;;
64915;SDS011;51427;-27.442;153.014;2024-02-26T00:49:51;3.72;;;1.33;;
64915;SDS011;51427;-27.442;153.014;2024-02-26T00:52:19;2.35;;;1.20;;
64915;SDS011;51427;-27.442;153.014;2024-02-26T00:54:46;3.00;;;0.98;;
64915;SDS011;51427;-27.442;153.014;2024-02-26T00:57:14;2.63;;;1.00;;
64915;SDS011;51427;-27.442;153.014;2024-02-26T00:59:41;4.95;;;1.13;;
64915;SDS011;51427;-27.442;153.014;2024-02-26T01:02:08;4.78;;;1.42;;
64915;SDS011;51427;-27.442;153.014;2024-02-26T01:04:35;3.75;;;1.30;;
64915;SDS011;51427;-27.442;153.014;2024-02-26T01:07:03;5.18;;;1.30;;
64915;SDS011;51427;-27.442;153.014;2024-02-26T01:09:30;3.85;;;1.30;;
64915;SDS011;51427;-27.442;153.014;2024-02-26T01:11:57;3.92;;;1.40;;
64915;SDS011;51427;-27.442;153.014;2024-02-26T01:14:25;4.32;;;1.38;;
64915;SDS011;51427;-27.442;153.014;2024-02-26T01:16:52;5.80;;;1.50;;
64915;SDS011;51427;-27.442;153.014;2024-02-26T01:19:19;2.53;;;1.27;;
64915;SDS011;51427;-27.442;153.014;2024-02-26T01:21:47;3.80;;;1.17;;
64915;SDS011;51427;-27.442;153.014;2024-02-26T01:24:14;4.82;;;1.40;;
64915;SDS011;51427;-27.442;153.014;2024-02-26T01:26:42;2.67;;;1.20;;
64915;SDS011;51427;-27.442;153.014;2024-02-26T01:29:09;4.18;;;1.50;;
64915;SDS011;51427;-27.442;153.014;2024-02-26T01:31:36;2.58;;;1.27;;
64915;SDS011;51427;-27.442;153.014;2024-02-26T01:34:04;2.80;;;1.10;;
64915;SDS011;51427;-27.442;153.014;2024-02-26T01:36:31;2.88;;;1.10;;
64915;SDS011;51427;-27.442;153.014;2024-02-26T01:39:00;3.08;;;1.30;;
64915;SDS011;51427;-27.442;153.014;2024-02-26T01:41:29;2.90;;;1.23;;
64915;SDS011;51427;-27.442;153.014;2024-02-26T01:43:56;6.35;;;1.60;;
64915;SDS011;51427;-27.442;153.014;2024-02-26T01:46:23;4.25;;;1.70;;
64915;SDS011;51427;-27.442;153.014;2024-02-26T01:48:52;5.18;;;1.60;;
64915;SDS011;51427;-27.442;153.014;2024-02-26T01:51:20;5.10;;;1.63;;
64915;SDS011;51427;-27.442;153.014;2024-02-26T01:53:47;4.00;;;1.45;;
64915;SDS011;51427;-27.442;153.014;2024-02-26T01:56:15;4.40;;;1.70;;
64915;SDS011;51427;-27.442;153.014;2024-02-26T01:58:45;2.53;;;1.63;;
64915;SDS011;51427;-27.442;153.014;2024-02-26T02:01:12;5.22;;;1.33;;
64915;SDS011;51427;-27.442;153.014;2024-02-26T02:03:42;2.75;;;1.50;;
64915;SDS011;51427;-27.442;153.014;2024-02-26T02:06:11;3.70;;;1.48;;
64915;SDS011;51427;-27.442;153.014;2024-02-26T02:08:39;5.47;;;1.50;;
64915;SDS011;51427;-27.442;153.014;2024-02-26T02:11:06;3.97;;;1.50;;
64915;SDS011;51427;-27.442;153.014;2024-02-26T02:13:37;3.35;;;1.40;;
64915;SDS011;51427;-27.442;153.014;2024-02-26T02:16:04;4.63;;;1.42;;
64915;SDS011;51427;-27.442;153.014;2024-02-26T02:18:32;5.00;;;1.48;;
64915;SDS011;51427;-27.442;153.014;2024-02-26T02:21:00;4.88;;;1.65;;
64915;SDS011;51427;-27.442;153.014;2024-02-26T02:23:28;2.38;;;1.45;;
64915;SDS011;51427;-27.442;153.014;2024-02-26T02:25:56;5.93;;;1.77;;
64915;SDS011;51427;-27.442;153.014;2024-02-26T02:28:25;4.82;;;1.60;;
64915;SDS011;51427;-27.442;153.014;2024-02-26T02:30:54;2.15;;;1.40;;
64915;SDS011;51427;-27.442;153.014;2024-02-26T02:33:22;7.15;;;1.83;;
64915;SDS011;51427;-27.442;153.014;2024-02-26T02:35:51;3.58;;;1.30;;
64915;SDS011;51427;-27.442;153.014;2024-02-26T02:38:20;3.22;;;1.40;;
64915;SDS011;51427;-27.442;153.014;2024-02-26T02:40:49;3.85;;;1.40;;
64915;SDS011;51427;-27.442;153.014;2024-02-26T02:43:16;6.47;;;1.75;;
64915;SDS011;51427;-27.442;153.014;2024-02-26T02:45:44;3.67;;;1.63;;
64915;SDS011;51427;-27.442;153.014;2024-02-26T02:48:11;3.38;;;1.48;;
64915;SDS011;51427;-27.442;153.014;2024-02-26T02:50:38;4.50;;;1.50;;
64915;SDS011;51427;-27.442;153.014;2024-02-26T02:53:06;5.20;;;1.77;;
64915;SDS011;51427;-27.442;153.014;2024-02-26T02:55:33;5.10;;;1.83;;
64915;SDS011;51427;-27.442;153.014;2024-02-26T02:58:00;5.65;;;1.52;;
64915;SDS011;51427;-27.442;153.014;2024-02-26T03:00:28;3.65;;;1.42;;
64915;SDS011;51427;-27.442;153.014;2024-02-26T03:02:55;5.97;;;2.03;;
64915;SDS011;51427;-27.442;153.014;2024-02-26T03:05:22;4.25;;;1.50;;
64915;SDS011;51427;-27.442;153.014;2024-02-26T03:07:49;5.95;;;2.00;;
64915;SDS011;51427;-27.442;153.014;2024-02-26T03:10:18;4.95;;;1.48;;
64915;SDS011;51427;-27.442;153.014;2024-02-26T03:12:45;4.47;;;1.73;;
64915;SDS011;51427;-27.442;153.014;2024-02-26T03:15:13;5.70;;;1.55;;
64915;SDS011;51427;-27.442;153.014;2024-02-26T03:17:40;7.05;;;1.88;;
64915;SDS011;51427;-27.442;153.014;2024-02-26T03:20:07;6.25;;;1.88;;
64915;SDS011;51427;-27.442;153.014;2024-02-26T03:22:35;5.20;;;1.80;;
64915;SDS011;51427;-27.442;153.014;2024-02-26T03:25:04;5.10;;;2.10;;
64915;SDS011;51427;-27.442;153.014;2024-02-26T03:27:32;6.22;;;2.00;;
64915;SDS011;51427;-27.442;153.014;2024-02-26T03:30:00;6.07;;;1.70;;
64915;SDS011;51427;-27.442;153.014;2024-02-26T03:32:28;7.63;;;1.95;;
64915;SDS011;51427;-27.442;153.014;2024-02-26T03:34:55;6.47;;;1.98;;
64915;SDS011;51427;-27.442;153.014;2024-02-26T03:37:22;5.70;;;1.80;;
64915;SDS011;51427;-27.442;153.014;2024-02-26T03:39:50;6.63;;;1.85;;
64915;SDS011;51427;-27.442;153.014;2024-02-26T03:42:18;4.25;;;1.80;;
64915;SDS011;51427;-27.442;153.014;2024-02-26T03:44:45;8.88;;;2.10;;
64915;SDS011;51427;-27.442;153.014;2024-02-26T03:47:12;5.35;;;2.00;;
64915;SDS011;51427;-27.442;153.014;2024-02-26T03:49:39;6.07;;;1.90;;
64915;SDS011;51427;-27.442;153.014;2024-02-26T03:52:07;7.47;;;2.03;;
64915;SDS011;51427;-27.442;153.014;2024-02-26T03:54:34;6.57;;;1.90;;
64915;SDS011;51427;-27.442;153.014;2024-02-26T03:57:01;6.78;;;1.83;;
64915;SDS011;51427;-27.442;153.014;2024-02-26T03:59:29;4.50;;;2.00;;
64915;SDS011;51427;-27.442;153.014;2024-02-26T04:01:57;6.43;;;1.95;;
64915;SDS011;51427;-27.442;153.014;2024-02-26T04:04:24;4.43;;;1.80;;
64915;SDS011;51427;-27.442;153.014;2024-02-26T04:06:51;6.65;;;1.92;;
64915;SDS011;51427;-27.442;153.014;2024-02-26T04:09:19;8.57;;;1.85;;
64915;SDS011;51427;-27.442;153.014;2024-02-26T04:11:46;7.20;;;1.92;;
64915;SDS011;51427;-27.442;153.014;2024-02-26T04:14:13;7.20;;;1.80;;
64915;SDS011;51427;-27.442;153.014;2024-02-26T04:16:40;2.97;;;1.60;;
64915;SDS011;51427;-27.442;153.014;2024-02-26T04:19:08;5.88;;;1.50;;
64915;SDS011;51427;-27.442;153.014;2024-02-26T04:21:35;4.55;;;1.60;;
64915;SDS011;51427;-27.442;153.014;2024-02-26T04:24:02;4.30;;;1.65;;
64915;SDS011;51427;-27.442;153.014;2024-02-26T04:26:30;6.32;;;1.77;;
64915;SDS011;51427;-27.442;153.014;2024-02-26T04:28:57;6.05;;;1.60;;
64915;SDS011;51427;-27.442;153.014;2024-02-26T04:31:25;4.72;;;1.67;;
64915;SDS011;51427;-27.442;153.014;2024-02-26T04:33:53;5.95;;;2.20;;
64915;SDS011;51427;-27.442;153.014;2024-02-26T04:36:20;5.78;;;1.70;;
64915;SDS011;51427;-27.442;153.014;2024-02-26T04:38:47;4.32;;;1.60;;
64915;SDS011;51427;-27.442;153.014;2024-02-26T04:41:15;4.97;;;1.42;;
64915;SDS011;51427;-27.442;153.014;2024-02-26T04:43:42;5.65;;;1.40;;
64915;SDS011;51427;-27.442;153.014;2024-02-26T04:46:09;7.82;;;1.70;;
64915;SDS011;51427;-27.442;153.014;2024-02-26T04:48:37;5.60;;;1.40;;
64915;SDS011;51427;-27.442;153.014;2024-02-26T04:51:04;8.18;;;1.42;;
64915;SDS011;51427;-27.442;153.014;2024-02-26T04:53:32;6.32;;;1.60;;
64915;SDS011;51427;-27.442;153.014;2024-02-26T04:55:59;6.65;;;1.73;;
64915;SDS011;51427;-27.442;153.014;2024-02-26T04:58:26;7.85;;;2.22;;
64915;SDS011;51427;-27.442;153.014;2024-02-26T05:00:53;6.70;;;1.45;;
64915;SDS011;51427;-27.442;153.014;2024-02-26T05:03:21;4.53;;;1.30;;
64915;SDS011;51427;-27.442;153.014;2024-02-26T05:05:48;6.60;;;1.70;;
64915;SDS011;51427;-27.442;153.014;2024-02-26T05:08:16;8.80;;;1.67;;
64915;SDS011;51427;-27.442;153.014;2024-02-26T05:10:44;4.55;;;1.77;;
64915;SDS011;51427;-27.442;153.014;2024-02-26T05:13:12;6.40;;;1.60;;
64915;SDS011;51427;-27.442;153.014;2024-02-26T05:15:41;4.00;;;1.70;;
64915;SDS011;51427;-27.442;153.014;2024-02-26T05:18:09;4.57;;;1.50;;
64915;SDS011;51427;-27.442;153.014;2024-02-26T05:20:36;6.97;;;1.83;;
64915;SDS011;51427;-27.442;153.014;2024-02-26T05:23:03;5.97;;;2.08;;
64915;SDS011;51427;-27.442;153.014;2024-02-26T05:25:31;5.60;;;1.75;;
64915;SDS011;51427;-27.442;153.014;2024-02-26T05:27:58;4.07;;;1.67;;
64915;SDS011;51427;-27.442;153.014;2024-02-26T05:30:25;4.22;;;1.65;;
64915;SDS011;51427;-27.442;153.014;2024-02-26T05:32:53;6.57;;;1.50;;
64915;SDS011;51427;-27.442;153.014;2024-02-26T05:35:21;6.50;;;2.40;;
64915;SDS011;51427;-27.442;153.014;2024-02-26T05:37:48;4.10;;;1.73;;
64915;SDS011;51427;-27.442;153.014;2024-02-26T05:40:15;6.78;;;2.00;;
64915;SDS011;51427;-27.442;153.014;2024-02-26T05:42:43;12.65;;;2.90;;
64915;SDS011;51427;-27.442;153.014;2024-02-26T05:45:12;5.72;;;1.85;;
64915;SDS011;51427;-27.442;153.014;2024-02-26T05:47:40;7.07;;;1.70;;
64915;SDS011;51427;-27.442;153.014;2024-02-26T05:50:10;5.50;;;1.70;;
64915;SDS011;51427;-27.442;153.014;2024-02-26T05:52:38;5.63;;;1.95;;
64915;SDS011;51427;-27.442;153.014;2024-02-26T05:55:06;7.80;;;1.70;;
64915;SDS011;51427;-27.442;153.014;2024-02-26T05:57:34;5.43;;;1.95;;
64915;SDS011;51427;-27.442;153.014;2024-02-26T06:00:02;4.57;;;1.90;;
64915;SDS011;51427;-27.442;153.014;2024-02-26T06:02:30;7.63;;;1.92;;
64915;SDS011;51427;-27.442;153.014;2024-02-26T06:04:57;5.10;;;1.83;;
64915;SDS011;51427;-27.442;153.014;2024-02-26T06:07:25;5.63;;;1.67;;
64915;SDS011;51427;-27.442;153.014;2024-02-26T06:09:52;5.75;;;2.08;;
64915;SDS011;51427;-27.442;153.014;2024-02-26T06:12:20;6.00;;;1.77;;
64915;SDS011;51427;-27.442;153.014;2024-02-26T06:14:47;8.52;;;2.00;;
64915;SDS011;51427;-27.442;153.014;2024-02-26T06:17:15;4.25;;;1.88;;
64915;SDS011;51427;-27.442;153.014;2024-02-26T06:19:42;4.78;;;2.25;;
64915;SDS011;51427;-27.442;153.014;2024-02-26T06:22:09;7.95;;;1.95;;
64915;SDS011;51427;-27.442;153.014;2024-02-26T06:24:36;5.43;;;1.88;;
64915;SDS011;51427;-27.442;153.014;2024-02-26T06:27:04;8.13;;;2.30;;
64915;SDS011;51427;-27.442;153.014;2024-02-26T06:29:31;7.38;;;2.08;;
64915;SDS011;51427;-27.442;153.014;2024-02-26T06:31:58;4.63;;;1.60;;
64915;SDS011;51427;-27.442;153.014;2024-02-26T06:34:26;6.63;;;2.03;;
64915;SDS011;51427;-27.442;153.014;2024-02-26T06:36:53;7.35;;;2.15;;
64915;SDS011;51427;-27.442;153.014;2024-02-26T06:39:20;6.78;;;2.10;;
64915;SDS011;51427;-27.442;153.014;2024-02-26T06:41:47;7.07;;;2.10;;
64915;SDS011;51427;-27.442;153.014;2024-02-26T06:44:15;7.03;;;2.42;;
64915;SDS011;51427;-27.442;153.014;2024-02-26T06:46:42;6.40;;;2.05;;
64915;SDS011;51427;-27.442;153.014;2024-02-26T06:49:09;5.93;;;2.03;;
64915;SDS011;51427;-27.442;153.014;2024-02-26T06:51:36;12.75;;;2.15;;
64915;SDS011;51427;-27.442;153.014;2024-02-26T06:54:04;9.50;;;2.20;;
64915;SDS011;51427;-27.442;153.014;2024-02-26T06:56:31;9.73;;;2.03;;
64915;SDS011;51427;-27.442;153.014;2024-02-26T06:58:58;5.13;;;1.95;;
64915;SDS011;51427;-27.442;153.014;2024-02-26T07:01:26;5.47;;;1.83;;
64915;SDS011;51427;-27.442;153.014;2024-02-26T07:03:53;6.60;;;2.00;;
64915;SDS011;51427;-27.442;153.014;2024-02-26T07:06:20;6.80;;;1.77;;
64915;SDS011;51427;-27.442;153.014;2024-02-26T07:08:47;7.85;;;2.03;;
64915;SDS011;51427;-27.442;153.014;2024-02-26T07:11:15;7.93;;;2.50;;
64915;SDS011;51427;-27.442;153.014;2024-02-26T07:13:42;8.00;;;1.80;;
64915;SDS011;51427;-27.442;153.014;2024-02-26T07:16:09;8.10;;;1.88;;
64915;SDS011;51427;-27.442;153.014;2024-02-26T07:18:37;5.90;;;2.28;;
64915;SDS011;51427;-27.442;153.014;2024-02-26T07:21:11;4.28;;;1.80;;
64915;SDS011;51427;-27.442;153.014;2024-02-26T07:23:39;7.95;;;2.08;;
64915;SDS011;51427;-27.442;153.014;2024-02-26T07:26:06;12.35;;;2.72;;
64915;SDS011;51427;-27.442;153.014;2024-02-26T07:28:34;5.80;;;2.08;;
64915;SDS011;51427;-27.442;153.014;2024-02-26T07:31:01;7.03;;;2.13;;
64915;SDS011;51427;-27.442;153.014;2024-02-26T07:33:28;5.22;;;2.60;;
64915;SDS011;51427;-27.442;153.014;2024-02-26T07:35:56;6.88;;;2.13;;
64915;SDS011;51427;-27.442;153.014;2024-02-26T07:38:23;6.85;;;1.80;;
64915;SDS011;51427;-27.442;153.014;2024-02-26T07:40:50;8.38;;;2.15;;
64915;SDS011;51427;-27.442;153.014;2024-02-26T07:43:18;7.38;;;2.03;;
64915;SDS011;51427;-27.442;153.014;2024-02-26T07:45:45;7.82;;;2.00;;
64915;SDS011;51427;-27.442;153.014;2024-02-26T07:48:12;7.78;;;2.05;;
64915;SDS011;51427;-27.442;153.014;2024-02-26T07:50:40;8.00;;;1.85;;
64915;SDS011;51427;-27.442;153.014;2024-02-26T07:53:07;2.38;;;1.70;;
64915;SDS011;51427;-27.442;153.014;2024-02-26T07:55:34;6.68;;;2.15;;
64915;SDS011;51427;-27.442;153.014;2024-02-26T07:58:01;9.50;;;2.08;;
64915;SDS011;51427;-27.442;153.014;2024-02-26T08:00:29;6.57;;;2.10;;
64915;SDS011;51427;-27.442;153.014;2024-02-26T08:02:56;7.47;;;2.03;;
64915;SDS011;51427;-27.442;153.014;2024-02-26T08:05:24;5.03;;;1.58;;
64915;SDS011;51427;-27.442;153.014;2024-02-26T08:07:51;4.43;;;1.50;;
64915;SDS011;51427;-27.442;153.014;2024-02-26T08:10:18;7.50;;;1.70;;
64915;SDS011;51427;-27.442;153.014;2024-02-26T08:12:45;3.83;;;1.52;;
64915;SDS011;51427;-27.442;153.014;2024-02-26T08:15:13;6.65;;;1.67;;
64915;SDS011;51427;-27.442;153.014;2024-02-26T08:17:40;6.38;;;1.85;;
64915;SDS011;51427;-27.442;153.014;2024-02-26T08:20:07;5.47;;;1.70;;
64915;SDS011;51427;-27.442;153.014;2024-02-26T08:22:35;4.97;;;1.45;;
64915;SDS011;51427;-27.442;153.014;2024-02-26T08:25:04;6.55;;;2.10;;
64915;SDS011;51427;-27.442;153.014;2024-02-26T08:27:34;5.22;;;1.48;;
64915;SDS011;51427;-27.442;153.014;2024-02-26T08:30:02;6.57;;;1.92;;
64915;SDS011;51427;-27.442;153.014;2024-02-26T08:32:29;7.60;;;1.85;;
64915;SDS011;51427;-27.442;153.014;2024-02-26T08:34:56;7.07;;;2.30;;
64915;SDS011;51427;-27.442;153.014;2024-02-26T08:37:24;3.97;;;1.73;;
64915;SDS011;51427;-27.442;153.014;2024-02-26T08:39:51;5.32;;;1.67;;
64915;SDS011;51427;-27.442;153.014;2024-02-26T08:42:18;4.97;;;1.63;;
64915;SDS011;51427;-27.442;153.014;2024-02-26T08:44:46;3.33;;;1.80;;
64915;SDS011;51427;-27.442;153.014;2024-02-26T08:47:14;6.75;;;1.83;;
64915;SDS011;51427;-27.442;153.014;2024-02-26T08:49:45;5.40;;;1.92;;
64915;SDS011;51427;-27.442;153.014;2024-02-26T08:52:12;9.68;;;1.85;;
64915;SDS011;51427;-27.442;153.014;2024-02-26T08:54:40;7.00;;;2.08;;
64915;SDS011;51427;-27.442;153.014;2024-02-26T08:57:07;6.60;;;2.20;;
64915;SDS011;51427;-27.442;153.014;2024-02-26T08:59:35;6.72;;;2.22;;
64915;SDS011;51427;-27.442;153.014;2024-02-26T09:02:02;5.55;;;2.17;;
64915;SDS011;51427;-27.442;153.014;2024-02-26T09:04:30;8.68;;;1.98;;
64915;SDS011;51427;-27.442;153.014;2024-02-26T09:06:57;7.85;;;1.73;;
64915;SDS011;51427;-27.442;153.014;2024-02-26T09:09:24;6.80;;;1.65;;
64915;SDS011;51427;-27.442;153.014;2024-02-26T09:11:52;7.72;;;2.15;;
64915;SDS011;51427;-27.442;153.014;2024-02-26T09:14:21;5.78;;;1.63;;
64915;SDS011;51427;-27.442;153.014;2024-02-26T09:16:48;5.70;;;1.85;;
64915;SDS011;51427;-27.442;153.014;2024-02-26T09:19:17;6.72;;;1.83;;
64915;SDS011;51427;-27.442;153.014;2024-02-26T09:21:44;6.38;;;2.10;;
64915;SDS011;51427;-27.442;153.014;2024-02-26T09:24:12;6.32;;;1.88;;
64915;SDS011;51427;-27.442;153.014;2024-02-26T09:26:39;4.78;;;1.65;;
64915;SDS011;51427;-27.442;153.014;2024-02-26T09:29:06;6.70;;;1.95;;
64915;SDS011;51427;-27.442;153.014;2024-02-26T09:31:34;5.68;;;2.00;;
64915;SDS011;51427;-27.442;153.014;2024-02-26T09:34:01;9.25;;;2.65;;
64915;SDS011;51427;-27.442;153.014;2024-02-26T09:36:29;5.07;;;2.38;;
64915;SDS011;51427;-27.442;153.014;2024-02-26T09:38:56;11.93;;;1.83;;
64915;SDS011;51427;-27.442;153.014;2024-02-26T09:41:23;6.50;;;2.13;;
64915;SDS011;51427;-27.442;153.014;2024-02-26T09:43:58;5.88;;;1.92;;
64915;SDS011;51427;-27.442;153.014;2024-02-26T09:46:28;8.05;;;2.53;;
64915;SDS011;51427;-27.442;153.014;2024-02-26T09:48:56;6.95;;;2.05;;
64915;SDS011;51427;-27.442;153.014;2024-02-26T09:51:24;8.95;;;1.92;;
64915;SDS011;51427;-27.442;153.014;2024-02-26T09:53:52;6.32;;;1.67;;
64915;SDS011;51427;-27.442;153.014;2024-02-26T09:56:21;6.43;;;2.20;;
64915;SDS011;51427;-27.442;153.014;2024-02-26T09:58:48;6.20;;;2.03;;
64915;SDS011;51427;-27.442;153.014;2024-02-26T10:01:20;10.50;;;1.90;;
64915;SDS011;51427;-27.442;153.014;2024-02-26T10:03:51;6.03;;;1.70;;
64915;SDS011;51427;-27.442;153.014;2024-02-26T10:06:24;8.45;;;2.05;;
64915;SDS011;51427;-27.442;153.014;2024-02-26T10:08:54;6.45;;;2.00;;
64915;SDS011;51427;-27.442;153.014;2024-02-26T10:11:24;10.88;;;2.45;;
64915;SDS011;51427;-27.442;153.014;2024-02-26T10:13:53;8.70;;;2.15;;
64915;SDS011;51427;-27.442;153.014;2024-02-26T10:16:20;5.30;;;2.03;;
64915;SDS011;51427;-27.442;153.014;2024-02-26T10:18:48;6.53;;;2.00;;
64915;SDS011;51427;-27.442;153.014;2024-02-26T10:21:20;7.35;;;2.03;;
64915;SDS011;51427;-27.442;153.014;2024-02-26T10:23:48;6.80;;;1.80;;
64915;SDS011;51427;-27.442;153.014;2024-02-26T10:26:19;8.65;;;2.00;;
64915;SDS011;51427;-27.442;153.014;2024-02-26T10:28:47;7.65;;;2.30;;
64915;SDS011;51427;-27.442;153.014;2024-02-26T10:31:15;7.53;;;2.33;;
64915;SDS011;51427;-27.442;153.014;2024-02-26T10:33:42;7.93;;;1.90;;
64915;SDS011;51427;-27.442;153.014;2024-02-26T10:36:10;5.38;;;1.67;;
64915;SDS011;51427;-27.442;153.014;2024-02-26T10:38:38;8.82;;;2.22;;
64915;SDS011;51427;-27.442;153.014;2024-02-26T10:41:12;7.65;;;2.35;;
64915;SDS011;51427;-27.442;153.014;2024-02-26T10:43:43;7.65;;;2.28;;
64915;SDS011;51427;-27.442;153.014;2024-02-26T10:46:10;5.43;;;2.25;;
64915;SDS011;51427;-27.442;153.014;2024-02-26T10:48:38;7.10;;;1.70;;
64915;SDS011;51427;-27.442;153.014;2024-02-26T10:51:05;4.65;;;1.73;;
64915;SDS011;51427;-27.442;153.014;2024-02-26T10:53:37;10.57;;;2.00;;
64915;SDS011;51427;-27.442;153.014;2024-02-26T10:56:07;10.35;;;2.58;;
64915;SDS011;51427;-27.442;153.014;2024-02-26T10:58:36;7.15;;;1.90;;
64915;SDS011;51427;-27.442;153.014;2024-02-26T11:01:04;6.80;;;1.85;;
64915;SDS011;51427;-27.442;153.014;2024-02-26T11:03:33;7.55;;;1.90;;
64915;SDS011;51427;-27.442;153.014;2024-02-26T11:06:02;7.10;;;2.35;;
64915;SDS011;51427;-27.442;153.014;2024-02-26T11:08:31;6.55;;;1.83;;
64915;SDS011;51427;-27.442;153.014;2024-02-26T11:10:59;4.82;;;1.85;;
64915;SDS011;51427;-27.442;153.014;2024-02-26T11:13:29;5.47;;;1.50;;
64915;SDS011;51427;-27.442;153.014;2024-02-26T11:15:58;9.50;;;2.00;;
64915;SDS011;51427;-27.442;153.014;2024-02-26T11:18:29;6.18;;;1.98;;
64915;SDS011;51427;-27.442;153.014;2024-02-26T11:20:57;12.30;;;2.20;;
64915;SDS011;51427;-27.442;153.014;2024-02-26T11:23:27;6.47;;;2.05;;
64915;SDS011;51427;-27.442;153.014;2024-02-26T11:25:55;6.82;;;2.53;;
64915;SDS011;51427;-27.442;153.014;2024-02-26T11:28:25;4.57;;;1.88;;
64915;SDS011;51427;-27.442;153.014;2024-02-26T11:30:55;7.55;;;2.10;;
64915;SDS011;51427;-27.442;153.014;2024-02-26T11:33:25;8.55;;;2.67;;
64915;SDS011;51427;-27.442;153.014;2024-02-26T11:35:53;7.15;;;2.45;;
64915;SDS011;51427;-27.442;153.014;2024-02-26T11:38:21;9.02;;;2.67;;
64915;SDS011;51427;-27.442;153.014;2024-02-26T11:40:50;7.28;;;2.25;;
64915;SDS011;51427;-27.442;153.014;2024-02-26T11:43:23;7.55;;;2.13;;
64915;SDS011;51427;-27.442;153.014;2024-02-26T11:46:31;6.68;;;2.10;;
64915;SDS011;51427;-27.442;153.014;2024-02-26T11:49:00;8.85;;;2.38;;
64915;SDS011;51427;-27.442;153.014;2024-02-26T11:51:33;5.88;;;2.05;;
64915;SDS011;51427;-27.442;153.014;2024-02-26T11:54:01;5.65;;;1.95;;
64915;SDS011;51427;-27.442;153.014;2024-02-26T11:56:28;6.95;;;2.10;;
64915;SDS011;51427;-27.442;153.014;2024-02-26T11:58:59;8.05;;;2.25;;
64915;SDS011;51427;-27.442;153.014;2024-02-26T12:01:41;6.55;;;1.70;;
64915;SDS011;51427;-27.442;153.014;2024-02-26T12:06:51;5.32;;;1.77;;
64915;SDS011;51427;-27.442;153.014;2024-02-26T12:12:18;6.57;;;1.88;;
64915;SDS011;51427;-27.442;153.014;2024-02-26T12:14:52;6.53;;;1.98;;
64915;SDS011;51427;-27.442;153.014;2024-02-26T12:17:23;6.63;;;2.20;;
64915;SDS011;51427;-27.442;153.014;2024-02-26T12:19:53;5.75;;;1.88;;
64915;SDS011;51427;-27.442;153.014;2024-02-26T12:22:21;7.53;;;1.80;;
64915;SDS011;51427;-27.442;153.014;2024-02-26T12:24:58;9.00;;;1.88;;
64915;SDS011;51427;-27.442;153.014;2024-02-26T12:27:28;7.90;;;2.05;;
64915;SDS011;51427;-27.442;153.014;2024-02-26T12:29:56;6.18;;;1.92;;
64915;SDS011;51427;-27.442;153.014;2024-02-26T12:32:23;5.60;;;1.98;;
64915;SDS011;51427;-27.442;153.014;2024-02-26T12:34:50;9.80;;;2.05;;
64915;SDS011;51427;-27.442;153.014;2024-02-26T12:37:18;8.60;;;2.63;;
64915;SDS011;51427;-27.442;153.014;2024-02-26T12:39:45;5.85;;;1.70;;
64915;SDS011;51427;-27.442;153.014;2024-02-26T12:42:13;10.07;;;2.30;;
64915;SDS011;51427;-27.442;153.014;2024-02-26T12:44:41;4.22;;;2.05;;
64915;SDS011;51427;-27.442;153.014;2024-02-26T12:47:08;5.43;;;1.90;;
64915;SDS011;51427;-27.442;153.014;2024-02-26T12:49:42;4.95;;;1.90;;
64915;SDS011;51427;-27.442;153.014;2024-02-26T12:52:12;6.97;;;2.15;;
64915;SDS011;51427;-27.442;153.014;2024-02-26T12:54:40;5.28;;;2.05;;
64915;SDS011;51427;-27.442;153.014;2024-02-26T12:57:08;8.75;;;2.20;;
64915;SDS011;51427;-27.442;153.014;2024-02-26T12:59:36;11.88;;;3.30;;
64915;SDS011;51427;-27.442;153.014;2024-02-26T13:02:04;7.35;;;2.20;;
64915;SDS011;51427;-27.442;153.014;2024-02-26T13:04:32;6.40;;;2.10;;
64915;SDS011;51427;-27.442;153.014;2024-02-26T13:07:02;7.45;;;2.80;;
64915;SDS011;51427;-27.442;153.014;2024-02-26T13:09:34;5.68;;;2.22;;
64915;SDS011;51427;-27.442;153.014;2024-02-26T13:12:05;9.43;;;2.38;;
64915;SDS011;51427;-27.442;153.014;2024-02-26T13:14:33;4.72;;;1.80;;
64915;SDS011;51427;-27.442;153.014;2024-02-26T13:17:01;7.53;;;2.25;;
64915;SDS011;51427;-27.442;153.014;2024-02-26T13:19:29;7.63;;;2.53;;
64915;SDS011;51427;-27.442;153.014;2024-02-26T13:21:56;6.00;;;2.20;;
64915;SDS011;51427;-27.442;153.014;2024-02-26T13:24:34;7.50;;;1.70;;
64915;SDS011;51427;-27.442;153.014;2024-02-26T13:27:02;6.45;;;2.22;;
64915;SDS011;51427;-27.442;153.014;2024-02-26T13:29:31;7.72;;;2.13;;
64915;SDS011;51427;-27.442;153.014;2024-02-26T13:31:59;7.70;;;2.20;;
64915;SDS011;51427;-27.442;153.014;2024-02-26T13:34:26;7.97;;;1.95;;
64915;SDS011;51427;-27.442;153.014;2024-02-26T13:36:56;6.47;;;1.95;;
64915;SDS011;51427;-27.442;153.014;2024-02-26T13:39:24;7.28;;;1.95;;
64915;SDS011;51427;-27.442;153.014;2024-02-26T13:41:52;6.93;;;2.10;;
64915;SDS011;51427;-27.442;153.014;2024-02-26T13:44:20;5.90;;;2.42;;
64915;SDS011;51427;-27.442;153.014;2024-02-26T13:46:48;5.43;;;1.77;;
64915;SDS011;51427;-27.442;153.014;2024-02-26T13:49:16;5.32;;;2.28;;
64915;SDS011;51427;-27.442;153.014;2024-02-26T13:51:43;5.85;;;1.90;;
64915;SDS011;51427;-27.442;153.014;2024-02-26T13:54:10;7.38;;;2.10;;
64915;SDS011;51427;-27.442;153.014;2024-02-26T13:56:39;5.95;;;1.90;;
64915;SDS011;51427;-27.442;153.014;2024-02-26T13:59:06;9.50;;;2.42;;
64915;SDS011;51427;-27.442;153.014;2024-02-26T14:01:34;8.95;;;2.30;;
64915;SDS011;51427;-27.442;153.014;2024-02-26T14:04:01;6.75;;;1.90;;
64915;SDS011;51427;-27.442;153.014;2024-02-26T14:06:30;12.20;;;2.25;;
64915;SDS011;51427;-27.442;153.014;2024-02-26T14:08:57;6.38;;;2.15;;
64915;SDS011;51427;-27.442;153.014;2024-02-26T14:11:25;6.82;;;2.33;;
64915;SDS011;51427;-27.442;153.014;2024-02-26T14:13:54;6.97;;;1.90;;
64915;SDS011;51427;-27.442;153.014;2024-02-26T14:16:22;6.10;;;2.10;;
64915;SDS011;51427;-27.442;153.014;2024-02-26T14:18:49;6.90;;;1.65;;